Time;durP1;ratioP1;P1;durP2;ratioP2;P2;SDS_P1;SDS_P2;PMS_P1;PMS_P2;Temp;Humidity;BMP_temperature;BMP_pressure;BME280_temperature;BME280_humidity;BME280_pressure;Samples;Min_cycle;Max_cycle;Signal;HPM_P1;HPM_P2
2021/12/15 00:01:58;;;;;;;1.60;1.20;;;8.90;98.20;;;;;;5055461;28;20485;-76
2021/12/15 00:04:25;;;;;;;1.60;1.20;;;8.90;98.20;;;;;;5061256;28;20470;-76
2021/12/15 00:06:52;;;;;;;1.60;1.17;;;8.80;98.20;;;;;;5055590;28;20476;-76
2021/12/15 00:09:19;;;;;;;1.60;1.20;;;8.80;98.20;;;;;;5061926;28;20463;-76
2021/12/15 00:11:46;;;;;;;1.60;1.20;;;8.80;98.20;;;;;;5053397;28;20484;-76
2021/12/15 00:14:17;;;;;;;1.60;1.20;;;8.80;98.20;;;;;;5064310;28;20463;-76
2021/12/15 00:16:45;;;;;;;1.60;1.10;;;8.80;98.20;;;;;;5053303;28;20472;-76
2021/12/15 00:19:14;;;;;;;1.80;1.53;;;8.80;98.20;;;;;;5064310;28;20463;-75
2021/12/15 00:21:42;;;;;;;1.60;1.20;;;8.80;98.20;;;;;;5050817;28;20557;-76
2021/12/15 00:24:10;;;;;;;1.60;1.10;;;8.80;98.20;;;;;;5064824;28;20541;-76
2021/12/15 00:26:39;;;;;;;1.60;1.20;;;8.80;98.20;;;;;;5050733;28;20476;-76
2021/12/15 00:29:07;;;;;;;1.60;1.20;;;8.80;98.20;;;;;;5065945;28;20489;-76
2021/12/15 00:31:37;;;;;;;1.60;1.20;;;8.80;98.20;;;;;;5049993;28;20473;-76
2021/12/15 00:34:07;;;;;;;1.60;1.20;;;8.80;98.20;;;;;;5065619;28;20462;-76
2021/12/15 00:36:36;;;;;;;3.53;3.33;;;8.80;98.20;;;;;;5051441;28;21487;-76
2021/12/15 00:39:07;;;;;;;1.60;1.20;;;8.80;98.20;;;;;;5067081;28;20484;-76
2021/12/15 00:41:34;;;;;;;1.60;1.17;;;8.80;98.20;;;;;;5048216;28;20488;-76
2021/12/15 00:44:01;;;;;;;1.60;1.20;;;8.80;98.20;;;;;;5066678;28;20496;-76
2021/12/15 00:46:28;;;;;;;1.60;1.10;;;8.80;98.20;;;;;;5048817;28;20476;-76
2021/12/15 00:48:55;;;;;;;1.60;1.20;;;8.80;98.20;;;;;;5067860;28;20994;-76
2021/12/15 00:51:22;;;;;;;1.60;1.17;;;8.80;98.20;;;;;;5047690;28;20471;-76
2021/12/15 00:53:50;;;;;;;1.60;1.20;;;8.80;98.20;;;;;;5070028;28;20458;-76
2021/12/15 00:56:17;;;;;;;1.60;1.20;;;8.80;98.20;;;;;;5044282;28;20480;-76
2021/12/15 00:58:44;;;;;;;1.60;1.10;;;8.80;98.20;;;;;;5071874;28;20489;-76
2021/12/15 01:01:12;;;;;;;1.60;1.17;;;8.80;98.20;;;;;;5043484;28;20480;-76
2021/12/15 01:03:38;;;;;;;1.60;1.10;;;8.80;98.20;;;;;;5072984;28;20470;-76
2021/12/15 01:06:09;;;;;;;1.60;1.20;;;8.80;98.20;;;;;;5035347;28;20462;-76
2021/12/15 01:08:42;;;;;;;1.60;1.10;;;8.80;98.20;;;;;;5073196;28;20482;-75
2021/12/15 01:11:21;;;;;;;1.60;1.17;;;8.80;98.20;;;;;;5042163;28;20484;-76
2021/12/15 01:22:08;;;;;;;1.60;1.10;;;8.90;98.20;;;;;;5056245;28;20479;-76
2021/12/15 01:24:35;;;;;;;1.60;1.20;;;8.90;98.20;;;;;;5056862;28;20473;-76
2021/12/15 01:27:03;;;;;;;1.60;1.20;;;8.90;98.20;;;;;;5055469;28;20571;-76
2021/12/15 01:29:30;;;;;;;1.60;1.20;;;8.90;98.20;;;;;;5058367;28;20497;-76
2021/12/15 01:31:57;;;;;;;1.60;1.20;;;8.90;98.20;;;;;;5053795;28;20491;-76
2021/12/15 01:34:24;;;;;;;1.60;1.10;;;8.90;98.20;;;;;;5059894;28;20450;-76
2021/12/15 01:36:51;;;;;;;1.60;1.17;;;9.00;98.20;;;;;;5053315;28;20476;-76
2021/12/15 01:39:17;;;;;;;1.60;1.20;;;9.00;98.20;;;;;;5060301;28;20469;-76
2021/12/15 01:41:45;;;;;;;1.60;1.20;;;9.00;98.20;;;;;;5050964;28;20468;-76
2021/12/15 01:47:03;;;;;;;1.60;1.20;;;9.00;98.20;;;;;;5052604;28;20523;-76
2021/12/15 01:49:37;;;;;;;1.60;1.10;;;9.00;98.20;;;;;;5058343;28;20482;-76
2021/12/15 01:52:09;;;;;;;1.60;1.20;;;9.00;98.20;;;;;;5057129;28;20478;-76
2021/12/15 01:54:37;;;;;;;1.60;1.10;;;9.00;98.20;;;;;;5052830;28;20459;-76
2021/12/15 01:57:06;;;;;;;1.60;1.10;;;9.00;98.20;;;;;;5056661;28;20889;-76
2021/12/15 01:59:35;;;;;;;1.60;1.17;;;9.00;98.20;;;;;;5053919;28;20850;-76
2021/12/15 02:02:03;;;;;;;1.60;1.20;;;9.00;98.20;;;;;;5055966;28;20484;-76
2021/12/15 02:04:31;;;;;;;1.60;1.20;;;9.00;98.20;;;;;;5053481;28;20954;-76
2021/12/15 02:06:58;;;;;;;1.60;1.20;;;9.10;98.20;;;;;;5053539;28;20487;-76
2021/12/15 02:12:18;;;;;;;1.60;1.17;;;9.10;98.20;;;;;;5025644;28;21098;-76
2021/12/15 02:14:47;;;;;;;1.60;1.20;;;9.10;98.20;;;;;;5049387;28;20472;-76
2021/12/15 02:17:14;;;;;;;1.60;1.20;;;9.10;98.20;;;;;;5059373;28;20476;-76
2021/12/15 02:19:41;;;;;;;1.60;1.10;;;9.10;98.20;;;;;;5055707;28;20458;-76
2021/12/15 02:22:11;;;;;;;2.47;2.27;;;9.10;98.20;;;;;;5048090;28;20477;-76
2021/12/15 02:24:40;;;;;;;1.60;1.20;;;9.10;98.20;;;;;;5058706;28;20465;-76
2021/12/15 02:27:07;;;;;;;1.60;1.13;;;9.20;98.20;;;;;;5059667;28;20537;-76
2021/12/15 02:29:40;;;;;;;1.60;1.20;;;9.20;98.20;;;;;;5057040;28;20489;-76
2021/12/15 02:32:16;;;;;;;1.60;1.20;;;9.20;98.20;;;;;;5055674;28;20468;-76
2021/12/15 02:37:03;;;;;;;1.60;1.10;;;9.20;98.20;;;;;;5051224;28;20470;-76
2021/12/15 02:37:44;;;;;;;1.60;1.13;;;9.20;98.20;;;;;;5066315;28;21101;-77
2021/12/15 02:40:16;;;;;;;1.60;1.10;;;9.20;98.20;;;;;;5046591;28;20466;-76
2021/12/15 02:42:45;;;;;;;1.60;1.20;;;9.20;98.20;;;;;;5064933;28;20566;-76
2021/12/15 02:45:15;;;;;;;1.60;1.20;;;9.20;98.20;;;;;;5048923;28;20523;-75
2021/12/15 02:47:42;;;;;;;1.60;1.20;;;9.20;98.20;;;;;;5069956;28;20547;-77
2021/12/15 02:50:13;;;;;;;1.60;1.13;;;9.20;98.20;;;;;;5051012;28;20462;-76
2021/12/15 02:52:41;;;;;;;1.60;1.20;;;9.20;98.20;;;;;;5065575;28;20476;-76
2021/12/15 02:55:10;;;;;;;1.60;1.20;;;9.20;98.20;;;;;;5049805;28;20533;-76
2021/12/15 02:57:38;;;;;;;1.60;1.20;;;9.20;98.20;;;;;;5068211;28;20483;-76
2021/12/15 03:00:17;;;;;;;1.60;1.20;;;9.20;98.20;;;;;;5051726;28;20462;-76
2021/12/15 03:05:34;;;;;;;1.60;1.20;;;9.20;98.20;;;;;;5011089;28;20531;-76
2021/12/15 03:08:07;;;;;;;1.60;1.20;;;9.20;98.20;;;;;;5070195;28;20530;-76
2021/12/15 03:16:08;;;;;;;1.60;1.20;;;9.20;98.20;;;;;;5043526;28;21178;-76
2021/12/15 03:18:36;;;;;;;1.60;1.20;;;9.30;98.20;;;;;;5084140;28;20474;-76
2021/12/15 03:21:08;;;;;;;1.60;1.10;;;9.20;98.20;;;;;;5049760;28;20489;-76
2021/12/15 03:23:42;;;;;;;1.60;1.20;;;9.20;98.20;;;;;;5085574;28;20515;-76
2021/12/15 03:26:13;;;;;;;1.60;1.20;;;9.20;98.20;;;;;;5051837;28;20507;-77
2021/12/15 03:34:14;;;;;;;1.60;1.20;;;9.20;98.20;;;;;;5071336;28;20441;-76
2021/12/15 03:37:20;;;;;;;1.60;1.20;;;9.20;98.20;;;;;;5054802;28;20477;-76
2021/12/15 03:39:47;;;;;;;1.60;1.20;;;9.20;98.20;;;;;;5061425;28;20549;-75
2021/12/15 03:42:19;;;;;;;1.60;1.17;;;9.20;98.20;;;;;;5064203;28;20503;-74
2021/12/15 03:44:48;;;;;;;1.60;1.20;;;9.20;98.20;;;;;;5067103;28;20470;-75
2021/12/15 03:47:19;;;;;;;1.60;1.13;;;9.20;98.20;;;;;;5063200;28;21029;-75
2021/12/15 03:49:47;;;;;;;1.60;1.20;;;9.20;98.20;;;;;;5065246;28;20496;-75
2021/12/15 03:52:14;;;;;;;1.60;1.20;;;9.20;98.20;;;;;;5065457;28;20482;-75
2021/12/15 03:54:42;;;;;;;1.60;1.20;;;9.20;98.20;;;;;;5066867;28;20473;-75
2021/12/15 03:57:10;;;;;;;1.60;1.20;;;9.20;98.20;;;;;;5062292;28;20476;-74
2021/12/15 03:59:42;;;;;;;1.60;1.10;;;9.10;98.20;;;;;;5066680;28;20851;-74
2021/12/15 04:02:10;;;;;;;1.60;1.10;;;9.10;98.20;;;;;;5062198;28;20992;-75
2021/12/15 04:04:37;;;;;;;1.60;1.20;;;9.10;98.20;;;;;;5064893;28;20455;-75
2021/12/15 04:07:04;;;;;;;1.60;1.10;;;9.10;98.20;;;;;;5061528;28;20471;-76
2021/12/15 04:09:31;;;;;;;1.60;1.20;;;9.10;98.20;;;;;;5069296;28;20481;-75
2021/12/15 04:12:00;;;;;;;1.60;1.17;;;9.10;98.20;;;;;;5058771;28;20503;-76
2021/12/15 04:14:34;;;;;;;1.60;1.20;;;9.10;98.20;;;;;;5064787;28;20468;-75
2021/12/15 04:17:05;;;;;;;1.60;1.10;;;9.00;98.20;;;;;;5057862;28;20487;-75
2021/12/15 04:19:34;;;;;;;1.60;1.10;;;9.00;98.20;;;;;;5065934;28;20457;-75
2021/12/15 04:22:01;;;;;;;1.60;1.20;;;9.00;98.20;;;;;;5057955;28;20483;-75
2021/12/15 04:24:28;;;;;;;1.60;1.20;;;9.00;98.20;;;;;;5061595;28;20466;-76
2021/12/15 04:26:58;;;;;;;1.60;1.10;;;9.00;98.20;;;;;;5057186;28;20503;-75
2021/12/15 04:29:27;;;;;;;1.60;1.10;;;9.00;98.20;;;;;;5060484;28;20618;-75
2021/12/15 04:31:59;;;;;;;1.60;1.20;;;9.00;98.20;;;;;;5060251;28;20531;-76
2021/12/15 04:34:28;;;;;;;1.60;1.20;;;9.00;98.20;;;;;;5067208;28;20502;-76
2021/12/15 04:36:55;;;;;;;1.60;1.20;;;9.00;98.20;;;;;;5059199;28;20507;-73
2021/12/15 04:39:28;;;;;;;1.60;1.20;;;9.00;98.20;;;;;;5071851;28;20470;-73
2021/12/15 04:41:57;;;;;;;1.60;1.20;;;9.00;98.20;;;;;;5055517;28;20473;-73
2021/12/15 04:44:26;;;;;;;1.60;1.20;;;9.00;98.20;;;;;;5071392;28;20466;-74
2021/12/15 04:47:00;;;;;;;1.60;1.20;;;9.00;98.20;;;;;;5056007;28;20488;-75
2021/12/15 04:49:33;;;;;;;1.60;1.10;;;9.00;98.20;;;;;;5071410;28;20981;-75
2021/12/15 04:52:01;;;;;;;1.60;1.13;;;9.00;98.20;;;;;;5057169;28;20476;-75
2021/12/15 04:54:29;;;;;;;1.60;1.20;;;9.00;98.20;;;;;;5063545;28;20993;-76
2021/12/15 04:56:57;;;;;;;1.83;1.57;;;9.00;98.20;;;;;;5060919;28;20566;-76
2021/12/15 04:59:24;;;;;;;1.60;1.10;;;9.00;98.20;;;;;;5070462;28;20501;-76
2021/12/15 05:01:51;;;;;;;1.60;1.20;;;8.90;98.20;;;;;;5055135;28;21125;-75
2021/12/15 05:04:18;;;;;;;1.60;1.10;;;9.00;98.20;;;;;;5070903;28;20469;-75
2021/12/15 05:06:47;;;;;;;1.60;1.20;;;9.00;98.20;;;;;;5051575;28;20481;-75
2021/12/15 05:09:14;;;;;;;1.60;1.20;;;8.90;98.20;;;;;;5070863;28;20573;-76
2021/12/15 05:11:42;;;;;;;1.60;1.10;;;8.90;98.20;;;;;;5054047;28;20475;-75
2021/12/15 05:14:09;;;;;;;1.60;1.20;;;8.90;98.20;;;;;;5072946;28;20462;-75
2021/12/15 05:16:35;;;;;;;1.60;1.20;;;8.90;98.20;;;;;;5049571;28;20490;-75
2021/12/15 05:19:03;;;;;;;1.60;1.20;;;8.90;98.20;;;;;;5075312;28;20944;-75
2021/12/15 05:21:31;;;;;;;1.60;1.20;;;8.90;98.20;;;;;;5047732;28;20489;-75
2021/12/15 05:24:11;;;;;;;1.60;1.20;;;8.90;98.20;;;;;;5074392;28;20520;-75
2021/12/15 05:26:38;;;;;;;1.60;1.10;;;8.90;98.20;;;;;;5052417;28;20858;-76
2021/12/15 05:29:05;;;;;;;1.60;1.20;;;8.90;98.20;;;;;;5069164;28;20520;-75
2021/12/15 05:31:32;;;;;;;1.60;1.20;;;8.90;98.20;;;;;;5050132;28;21002;-76
2021/12/15 05:33:59;;;;;;;1.60;1.20;;;8.90;98.20;;;;;;5076703;28;20449;-76
2021/12/15 05:36:26;;;;;;;1.60;1.20;;;8.90;98.20;;;;;;5040200;28;20510;-75
2021/12/15 05:38:52;;;;;;;1.60;1.20;;;8.90;98.20;;;;;;5055823;28;20478;-76
2021/12/15 05:41:21;;;;;;;1.60;1.20;;;8.90;98.20;;;;;;5034016;28;20542;-76
2021/12/15 05:43:48;;;;;;;1.60;1.20;;;8.90;98.20;;;;;;5068745;28;20458;-76
2021/12/15 05:46:15;;;;;;;1.60;1.17;;;8.90;98.20;;;;;;5038943;28;20480;-76
2021/12/15 05:48:42;;;;;;;1.60;1.20;;;8.90;98.20;;;;;;5070686;28;20478;-76
2021/12/15 05:51:09;;;;;;;1.60;1.20;;;8.90;98.20;;;;;;5041735;28;20488;-75
2021/12/15 05:53:36;;;;;;;1.60;1.20;;;8.90;98.20;;;;;;5071800;28;20464;-75
2021/12/15 05:56:03;;;;;;;1.60;1.40;;;8.90;98.20;;;;;;5036768;28;20463;-76
2021/12/15 05:58:32;;;;;;;1.60;1.20;;;8.80;98.20;;;;;;5075957;28;20489;-76
2021/12/15 06:00:59;;;;;;;1.60;1.20;;;8.80;98.20;;;;;;5039173;28;20554;-76
2021/12/15 06:03:26;;;;;;;1.60;1.20;;;8.80;98.20;;;;;;5072823;28;20546;-75
2021/12/15 06:05:53;;;;;;;1.60;1.20;;;8.80;98.20;;;;;;5036341;28;20466;-76
2021/12/15 06:08:20;;;;;;;1.60;1.20;;;8.80;98.20;;;;;;5073802;28;20597;-75
2021/12/15 06:10:47;;;;;;;1.60;1.20;;;8.80;98.20;;;;;;5050611;28;20596;-76
2021/12/15 06:13:14;;;;;;;1.60;1.20;;;8.80;98.20;;;;;;5076656;28;20462;-75
2021/12/15 06:15:44;;;;;;;1.60;1.20;;;8.80;98.20;;;;;;5052516;28;20454;-75
2021/12/15 06:18:13;;;;;;;1.60;1.20;;;8.80;98.20;;;;;;5070179;28;20482;-76
2021/12/15 06:20:41;;;;;;;1.60;1.20;;;8.80;98.20;;;;;;5055348;28;20894;-76
2021/12/15 06:23:16;;;;;;;1.60;1.10;;;8.70;98.20;;;;;;5074276;28;20480;-76
2021/12/15 06:25:43;;;;;;;1.60;1.20;;;8.70;98.20;;;;;;5052053;28;20978;-75
2021/12/15 06:28:10;;;;;;;1.60;1.20;;;8.70;98.20;;;;;;5074659;28;20486;-75
2021/12/15 06:30:38;;;;;;;1.60;1.20;;;8.70;98.20;;;;;;5055972;28;20493;-75
2021/12/15 06:33:08;;;;;;;1.60;1.33;;;8.70;98.20;;;;;;5074057;28;20577;-76
2021/12/15 06:35:36;;;;;;;1.60;1.20;;;8.70;98.20;;;;;;5052059;28;20985;-75
2021/12/15 06:38:06;;;;;;;1.70;1.40;;;8.70;98.20;;;;;;5077401;28;20488;-75
2021/12/15 06:40:34;;;;;;;1.63;1.27;;;8.80;98.20;;;;;;5053048;28;20457;-73
2021/12/15 06:43:01;;;;;;;1.60;1.20;;;8.70;98.20;;;;;;5073878;28;20587;-77
2021/12/15 06:45:35;;;;;;;1.60;1.20;;;8.70;98.20;;;;;;5050828;28;20536;-77
2021/12/15 06:59:00;;;;;;;1.60;1.20;;;8.80;98.20;;;;;;5068895;28;20497;-74
2021/12/15 07:01:27;;;;;;;1.60;1.20;;;8.80;98.20;;;;;;5056307;28;20479;-75
2021/12/15 07:03:54;;;;;;;1.60;1.20;;;8.80;98.20;;;;;;5068300;28;20489;-74
2021/12/15 07:06:23;;;;;;;1.60;1.20;;;8.80;98.20;;;;;;5049043;28;20856;-75
2021/12/15 07:08:50;;;;;;;1.60;1.20;;;8.80;98.20;;;;;;5070044;28;20478;-74
2021/12/15 07:11:17;;;;;;;1.60;1.20;;;8.80;98.20;;;;;;5046628;28;20467;-75
2021/12/15 07:13:44;;;;;;;1.60;1.20;;;8.80;98.20;;;;;;5071894;28;20470;-75
2021/12/15 07:16:11;;;;;;;1.60;1.30;;;8.80;98.20;;;;;;5043025;28;20480;-74
2021/12/15 07:18:46;;;;;;;1.60;1.20;;;8.80;98.20;;;;;;5073532;28;20532;-75
2021/12/15 07:21:19;;;;;;;1.60;1.20;;;8.80;98.20;;;;;;5044456;28;20483;-74
2021/12/15 07:23:48;;;;;;;1.60;1.20;;;8.90;98.20;;;;;;5068770;28;20520;-73
2021/12/15 07:26:15;;;;;;;1.60;1.20;;;8.80;98.20;;;;;;5041825;28;20472;-74
2021/12/15 07:28:42;;;;;;;1.60;1.20;;;8.90;98.20;;;;;;5073256;28;20478;-74
2021/12/15 07:31:09;;;;;;;1.60;1.20;;;8.90;98.20;;;;;;5043253;28;20487;-73
2021/12/15 07:33:36;;;;;;;1.60;1.20;;;8.90;98.20;;;;;;5074416;28;20954;-73
2021/12/15 07:36:05;;;;;;;1.60;1.27;;;8.90;98.20;;;;;;5042776;28;20462;-73
2021/12/15 07:38:34;;;;;;;1.60;1.20;;;8.90;98.20;;;;;;5074691;28;20565;-72
2021/12/15 07:41:03;;;;;;;1.60;1.20;;;8.90;98.20;;;;;;5038180;28;20498;-73
2021/12/15 07:43:30;;;;;;;1.60;1.20;;;8.90;98.20;;;;;;5075464;28;20486;-73
2021/12/15 07:46:01;;;;;;;1.60;1.20;;;8.90;98.20;;;;;;5040116;28;20469;-73
2021/12/15 07:48:34;;;;;;;1.60;1.20;;;8.90;98.20;;;;;;5075554;28;20494;-73
2021/12/15 07:51:02;;;;;;;1.60;1.20;;;8.90;98.20;;;;;;5040514;28;20539;-73
2021/12/15 07:53:30;;;;;;;1.60;1.20;;;8.90;98.20;;;;;;5075318;28;20539;-73
2021/12/15 07:55:58;;;;;;;1.60;1.20;;;8.90;98.20;;;;;;5037997;28;20538;-73
2021/12/15 07:58:27;;;;;;;1.60;1.20;;;8.90;98.20;;;;;;5074071;28;20841;-73
2021/12/15 08:00:55;;;;;;;1.60;1.20;;;8.90;98.20;;;;;;5038011;28;20458;-74
2021/12/15 08:03:23;;;;;;;1.60;1.20;;;8.90;98.20;;;;;;5077033;28;20486;-73
2021/12/15 08:05:53;;;;;;;1.60;1.20;;;9.00;98.20;;;;;;5038461;28;20498;-73
2021/12/15 08:08:20;;;;;;;1.60;1.20;;;9.00;98.20;;;;;;5076922;28;20489;-72
2021/12/15 08:10:49;;;;;;;1.60;1.20;;;9.00;98.20;;;;;;5040625;28;20498;-73
2021/12/15 08:13:17;;;;;;;1.60;1.20;;;9.00;98.20;;;;;;5077161;28;20477;-73
2021/12/15 08:15:45;;;;;;;1.60;1.10;;;9.00;98.20;;;;;;5050952;28;20462;-74
2021/12/15 08:18:13;;;;;;;1.60;1.20;;;9.00;98.20;;;;;;5052762;28;21002;-73
2021/12/15 08:20:41;;;;;;;1.60;1.17;;;9.00;98.20;;;;;;5047847;28;20826;-73
2021/12/15 08:23:08;;;;;;;1.60;1.20;;;9.10;98.20;;;;;;5068453;28;20467;-75
2021/12/15 08:25:38;;;;;;;1.60;1.13;;;9.10;98.20;;;;;;5047630;28;20458;-75
2021/12/15 08:28:06;;;;;;;1.60;1.20;;;9.10;98.20;;;;;;5067532;28;20476;-75
2021/12/15 08:30:34;;;;;;;1.60;1.20;;;9.10;98.20;;;;;;5048185;28;20496;-75
2021/12/15 08:33:04;;;;;;;1.60;1.20;;;9.10;98.20;;;;;;5068439;28;20867;-75
2021/12/15 08:35:34;;;;;;;1.60;1.20;;;9.10;98.20;;;;;;5044174;28;20466;-75
2021/12/15 08:38:01;;;;;;;1.60;1.10;;;9.10;98.20;;;;;;5069329;28;20485;-76
2021/12/15 08:40:28;;;;;;;1.60;1.20;;;9.10;98.20;;;;;;5047129;28;20471;-75
2021/12/15 08:42:57;;;;;;;1.60;1.20;;;9.10;98.20;;;;;;5067172;28;20488;-75
2021/12/15 08:45:24;;;;;;;1.60;1.20;;;9.10;98.20;;;;;;5046811;28;20833;-75
2021/12/15 08:47:51;;;;;;;1.60;1.20;;;9.10;98.20;;;;;;5067644;28;20518;-75
2021/12/15 08:50:22;;;;;;;1.60;1.20;;;9.10;98.20;;;;;;5046298;28;20497;-76
2021/12/15 08:52:49;;;;;;;1.60;1.20;;;9.10;98.20;;;;;;5068364;28;20484;-74
2021/12/15 08:55:16;;;;;;;1.60;1.10;;;9.20;98.20;;;;;;5046468;28;20466;-75
2021/12/15 08:57:48;;;;;;;1.60;1.23;;;9.20;98.20;;;;;;5063212;28;20499;-75
2021/12/15 09:00:17;;;;;;;1.60;1.20;;;9.20;98.20;;;;;;5049576;28;20531;-74
2021/12/15 09:02:44;;;;;;;1.60;1.20;;;9.20;98.20;;;;;;5066995;28;20484;-73
2021/12/15 09:05:12;;;;;;;1.60;1.20;;;9.20;98.20;;;;;;5047724;28;20462;-73
2021/12/15 09:07:44;;;;;;;1.60;1.10;;;9.30;98.20;;;;;;5065170;28;21250;-74
2021/12/15 09:10:11;;;;;;;1.60;1.10;;;9.30;98.20;;;;;;5047288;28;20482;-74
2021/12/15 09:12:38;;;;;;;1.60;1.20;;;9.30;98.20;;;;;;5063391;28;20479;-75
2021/12/15 09:15:07;;;;;;;2.03;1.50;;;9.30;98.20;;;;;;5048116;28;20467;-75
2021/12/15 09:17:34;;;;;;;1.60;1.20;;;9.40;98.20;;;;;;5060887;28;20499;-75
2021/12/15 09:20:01;;;;;;;1.60;1.13;;;9.40;98.20;;;;;;5049157;28;20469;-75
2021/12/15 09:22:28;;;;;;;1.60;1.20;;;9.40;98.20;;;;;;5063182;28;20530;-75
2021/12/15 09:24:56;;;;;;;1.60;1.20;;;9.50;98.20;;;;;;5051407;28;20458;-75
2021/12/15 09:27:23;;;;;;;1.60;1.20;;;9.50;98.20;;;;;;5061083;28;20495;-75
2021/12/15 09:29:50;;;;;;;1.70;1.40;;;9.60;98.20;;;;;;5052867;28;20466;-74
2021/12/15 09:32:17;;;;;;;1.60;1.10;;;9.60;98.20;;;;;;5059077;28;20491;-75
2021/12/15 09:34:45;;;;;;;1.60;1.10;;;9.60;98.20;;;;;;5045754;28;20477;-74
2021/12/15 09:37:11;;;;;;;1.60;1.20;;;9.70;98.20;;;;;;5052348;28;20496;-74
2021/12/15 09:39:38;;;;;;;1.60;1.20;;;9.70;98.20;;;;;;5050348;28;20469;-75
2021/12/15 09:42:07;;;;;;;1.60;1.20;;;9.70;98.20;;;;;;5051879;28;20562;-75
2021/12/15 09:44:34;;;;;;;1.60;1.10;;;9.70;98.20;;;;;;5053102;28;20462;-75
2021/12/15 09:47:16;;;;;;;1.60;1.20;;;9.80;98.20;;;;;;5052515;28;20496;-74
2021/12/15 10:03:43;;;;;;;1.60;1.20;;;10.00;98.20;;;;;;5029208;28;20473;-75
2021/12/15 10:06:24;;;;;;;1.60;1.17;;;10.00;98.20;;;;;;5037257;28;20599;-75
2021/12/15 10:17:34;;;;;;;1.60;1.20;;;10.00;98.20;;;;;;5047941;28;20607;-76
2021/12/15 10:20:03;;;;;;;1.60;1.17;;;10.00;98.20;;;;;;5045171;28;20494;-75
2021/12/15 10:22:37;;;;;;;1.60;1.13;;;10.10;98.20;;;;;;5059247;28;20505;-75
2021/12/15 10:25:10;;;;;;;1.60;1.10;;;10.10;98.20;;;;;;5044554;28;20473;-75
2021/12/15 10:27:42;;;;;;;1.60;1.20;;;10.10;98.20;;;;;;5060415;28;20484;-75
2021/12/15 10:30:21;;;;;;;1.60;1.10;;;10.10;98.20;;;;;;5042091;28;21081;-75
2021/12/15 10:32:53;;;;;;;1.67;1.20;;;10.10;98.20;;;;;;5060692;28;20491;-75
2021/12/15 10:35:26;;;;;;;1.60;1.10;;;10.10;98.20;;;;;;5044273;28;20473;-76
2021/12/15 10:38:11;;;;;;;1.60;1.13;;;10.10;98.20;;;;;;5062396;28;20571;-77
2021/12/15 10:40:42;;;;;;;1.60;1.10;;;10.10;98.20;;;;;;5042614;28;20926;-77
2021/12/15 10:43:10;;;;;;;1.60;1.10;;;10.20;98.20;;;;;;5062049;28;20575;-77
2021/12/15 10:45:43;;;;;;;1.60;1.10;;;10.20;98.20;;;;;;5042660;28;20459;-76
2021/12/15 10:48:20;;;;;;;1.60;1.10;;;10.20;98.20;;;;;;5061834;28;20496;-77
2021/12/15 10:50:48;;;;;;;1.60;1.10;;;10.20;98.20;;;;;;5038020;28;20524;-76
2021/12/15 10:53:15;;;;;;;1.60;1.10;;;10.20;98.20;;;;;;5071774;28;20466;-77
2021/12/15 10:55:42;;;;;;;1.60;1.20;;;10.20;98.20;;;;;;5041818;28;20462;-77
2021/12/15 10:58:32;;;;;;;1.60;1.20;;;10.30;98.20;;;;;;5061871;28;20486;-76
2021/12/15 11:01:01;;;;;;;1.60;1.20;;;10.30;98.20;;;;;;5033165;28;20959;-77
2021/12/15 11:03:34;;;;;;;1.60;1.10;;;10.30;98.20;;;;;;5069117;28;20473;-76
2021/12/15 11:06:01;;;;;;;1.60;1.10;;;10.30;98.20;;;;;;5036868;28;20465;-76
2021/12/15 11:08:28;;;;;;;1.60;1.10;;;10.30;98.20;;;;;;5073756;28;20603;-76
2021/12/15 11:11:00;;;;;;;1.60;1.10;;;10.30;98.20;;;;;;5038376;28;20482;-76
2021/12/15 11:13:33;;;;;;;1.60;1.10;;;10.30;98.20;;;;;;5072332;28;20473;-75
2021/12/15 11:16:05;;;;;;;1.60;1.13;;;10.30;98.20;;;;;;5036285;28;20633;-76
2021/12/15 11:18:35;;;;;;;1.60;1.10;;;10.30;98.20;;;;;;5071969;28;20482;-76
2021/12/15 11:21:06;;;;;;;1.60;1.10;;;10.30;98.20;;;;;;5039125;28;20485;-76
2021/12/15 11:23:34;;;;;;;1.60;1.20;;;10.30;98.20;;;;;;5070021;28;20819;-76
2021/12/15 11:26:03;;;;;;;1.60;1.17;;;10.30;98.20;;;;;;5036590;28;20477;-75
2021/12/15 11:28:31;;;;;;;1.60;1.13;;;10.30;98.20;;;;;;5070711;28;20477;-76
2021/12/15 11:31:03;;;;;;;1.60;1.20;;;10.40;98.20;;;;;;5034255;28;20482;-75
2021/12/15 11:33:32;;;;;;;1.60;1.13;;;10.40;98.20;;;;;;5072350;28;20468;-75
2021/12/15 11:36:02;;;;;;;1.60;1.10;;;10.40;98.20;;;;;;5037386;28;20466;-75
2021/12/15 11:38:31;;;;;;;1.60;1.10;;;10.40;98.20;;;;;;5071135;28;20493;-75
2021/12/15 11:41:12;;;;;;;1.60;1.10;;;10.40;98.20;;;;;;5036180;28;20466;-75
2021/12/15 11:43:43;;;;;;;1.60;1.20;;;10.40;98.20;;;;;;5070529;28;20462;-75
2021/12/15 11:46:25;;;;;;;1.70;1.23;;;10.40;98.20;;;;;;5039347;28;20885;-76
2021/12/15 11:48:54;;;;;;;1.67;1.23;;;10.40;98.20;;;;;;5065399;28;20837;-77
2021/12/15 11:51:38;;;;;;;1.60;1.10;;;10.40;98.20;;;;;;5042728;28;20496;-77
2021/12/15 11:54:15;;;;;;;1.60;1.10;;;10.50;98.20;;;;;;5061571;28;20795;-77
2021/12/15 11:56:43;;;;;;;1.63;1.20;;;10.50;98.20;;;;;;5048393;28;20472;-79
2021/12/15 11:59:21;;;;;;;1.60;1.10;;;10.50;98.20;;;;;;5062395;28;20478;-77
2021/12/15 12:01:58;;;;;;;1.60;1.10;;;10.50;98.20;;;;;;5053184;28;20517;-78
2021/12/15 12:04:35;;;;;;;1.60;1.20;;;10.50;98.20;;;;;;5059308;28;20860;-77
2021/12/15 12:07:25;;;;;;;1.60;1.10;;;10.50;98.20;;;;;;5055619;28;20472;-78
2021/12/15 12:09:57;;;;;;;1.70;1.30;;;10.50;98.20;;;;;;5050391;28;20458;-78
2021/12/15 12:12:29;;;;;;;1.60;1.10;;;10.40;98.20;;;;;;5057330;28;20512;-79
2021/12/15 12:14:56;;;;;;;1.60;1.17;;;10.50;98.20;;;;;;5050503;28;20465;-78
2021/12/15 12:17:28;;;;;;;1.70;1.60;;;10.50;98.20;;;;;;5060908;28;20480;-78
2021/12/15 12:19:58;;;;;;;1.60;1.20;;;10.50;98.20;;;;;;5050858;28;20467;-78
2021/12/15 12:22:27;;;;;;;1.60;1.10;;;10.50;98.20;;;;;;5061780;28;20487;-79
2021/12/15 12:24:56;;;;;;;1.70;1.30;;;10.50;98.20;;;;;;5050527;28;20566;-78
2021/12/15 12:27:29;;;;;;;1.60;1.20;;;10.50;98.20;;;;;;5060160;28;20481;-78
2021/12/15 12:29:58;;;;;;;1.60;1.10;;;10.50;98.20;;;;;;5051335;28;20974;-78
2021/12/15 12:32:27;;;;;;;1.60;1.10;;;10.50;98.20;;;;;;5060690;28;20895;-78
2021/12/15 12:34:54;;;;;;;1.60;1.10;;;10.60;98.20;;;;;;5051076;28;20584;-79
2021/12/15 12:37:22;;;;;;;1.60;1.20;;;10.60;98.20;;;;;;5059258;28;20507;-78
2021/12/15 12:39:54;;;;;;;1.60;1.10;;;10.60;98.20;;;;;;5051048;28;20527;-78
2021/12/15 12:42:37;;;;;;;1.60;1.10;;;10.60;98.20;;;;;;5058525;28;20516;-77
2021/12/15 12:45:20;;;;;;;1.63;1.20;;;10.60;98.20;;;;;;5040940;28;20470;-78
2021/12/15 12:48:05;;;;;;;1.63;1.17;;;10.60;98.20;;;;;;5063099;28;21027;-77
2021/12/15 12:51:02;;;;;;;1.67;1.20;;;10.60;98.20;;;;;;5039705;28;20462;-78
2021/12/15 12:59:32;;;;;;;1.60;1.10;;;10.60;98.20;;;;;;5054917;28;20553;-80
2021/12/15 13:02:01;;;;;;;1.60;1.10;;;10.60;98.20;;;;;;5053895;28;20475;-77
2021/12/15 13:04:42;;;;;;;1.60;1.10;;;10.60;98.20;;;;;;5056258;28;20489;-80
2021/12/15 13:07:11;;;;;;;1.70;1.20;;;10.60;98.20;;;;;;5060087;28;21793;-77
2021/12/15 13:09:50;;;;;;;1.70;1.27;;;10.60;98.20;;;;;;5054008;28;20462;-78
2021/12/15 13:12:26;;;;;;;1.60;1.20;;;10.70;98.20;;;;;;5056821;28;20572;-77
2021/12/15 13:14:57;;;;;;;1.60;1.10;;;10.70;98.20;;;;;;5048810;28;20486;-77
2021/12/15 13:17:34;;;;;;;1.63;1.10;;;10.70;98.20;;;;;;5058834;28;20502;-78
2021/12/15 13:20:05;;;;;;;1.60;1.10;;;10.70;98.20;;;;;;5045686;28;20553;-76
2021/12/15 13:22:42;;;;;;;1.60;1.10;;;10.70;98.20;;;;;;5058419;28;20480;-76
2021/12/15 13:30:54;;;;;;;1.60;1.10;;;10.70;98.20;;;;;;5030826;28;20512;-77
2021/12/15 13:33:44;;;;;;;1.60;1.10;;;10.70;98.20;;;;;;5069928;28;20973;-77
2021/12/15 13:36:14;;;;;;;1.60;1.10;;;10.70;98.20;;;;;;5035870;28;20508;-77
2021/12/15 13:38:45;;;;;;;1.60;1.10;;;10.70;98.20;;;;;;5067532;28;20552;-77
2021/12/15 13:41:20;;;;;;;1.60;1.20;;;10.70;98.20;;;;;;5037016;28;21161;-77
2021/12/15 13:43:56;;;;;;;1.60;1.10;;;10.70;98.20;;;;;;5063908;28;20964;-77
2021/12/15 13:46:43;;;;;;;1.60;1.17;;;10.60;98.20;;;;;;5041530;28;20483;-77
2021/12/15 13:49:40;;;;;;;1.60;1.10;;;10.60;98.20;;;;;;5058304;28;20500;-77
2021/12/15 13:52:30;;;;;;;1.60;1.10;;;10.60;98.20;;;;;;5052689;28;20480;-77
2021/12/15 13:55:19;;;;;;;1.60;1.10;;;10.60;98.20;;;;;;5045053;28;20458;-77
2021/12/15 13:58:06;;;;;;;1.60;1.10;;;10.60;98.20;;;;;;5061824;28;20488;-77
2021/12/15 14:00:38;;;;;;;1.60;1.10;;;10.60;98.20;;;;;;5036735;28;20518;-77
2021/12/15 14:03:13;;;;;;;1.60;1.10;;;10.50;98.20;;;;;;5062450;28;20477;-77
2021/12/15 14:05:42;;;;;;;1.60;1.10;;;10.50;98.20;;;;;;5038610;28;20477;-76
2021/12/15 14:08:13;;;;;;;1.60;1.20;;;10.50;98.20;;;;;;5061998;28;20501;-77
2021/12/15 14:10:55;;;;;;;1.60;1.10;;;10.50;98.20;;;;;;5042729;28;20484;-77
2021/12/15 14:13:36;;;;;;;1.60;1.10;;;10.40;98.20;;;;;;5029382;28;20963;-79
2021/12/15 14:16:04;;;;;;;1.60;1.20;;;10.50;98.20;;;;;;5036328;28;20466;-77
2021/12/15 14:18:33;;;;;;;1.60;1.10;;;10.50;98.20;;;;;;5069220;28;20542;-77
2021/12/15 14:21:03;;;;;;;1.60;1.10;;;10.50;98.20;;;;;;5035868;28;20973;-77
2021/12/15 14:23:32;;;;;;;1.60;1.10;;;10.40;98.20;;;;;;5067442;28;20467;-77